Метеорологические наблюдения на метеостанциях

Полезные ссылки:
Метеоцентр.Азия - наш сайт с высокодетализированными прогнозами погоды по пунктам России и мира
Облегчённая версия Метеоклуба (для смартфонов)

Метеорологические наблюдения на метеостанциях

Сейчас в Метеоклубе:
Участников - 3 [ alexeyich, Tuskarilla, Tintagel ]
Максимальное одновременное количество посетителей: 5 [16 Окт 2019 17:34]
Гостей - 0 / Участников - 5

 - Начало - Ответить - Статистика - Регистрация - Поиск -
МЕТЕОКЛУБ : независимое сообщество любителей метеорологии (Европа и Азия) : ФОРУМ О ПОГОДЕ И ПРИРОДЕ / Метеорологические приборы и методики наблюдений / Метеорологические наблюдения на метеостанциях
<< 1 ... 18 . 19 . 20 .
Автор Сообщение
CorvusCorax
Автор сайта
Письмо
Байконур
# Дата: 14 Мар 2019 10:47


Я застал уже ЦКС "Циклон", который принципиально облегчал работу
Morozov_S

Я видел Циклон в АСПД ПривУГМС в 1993 году, по тем временам внушительная машина :)

Morozov_S
Участник
Письмо
Нижний Новгород, За нашу Советскую Родину!
# Дата: 14 Мар 2019 10:55


CorvusCorax

Да, "Циклон" весьма внушительная ЭВМ была.
Видео.

suum_suum
Участник
Письмо
Russian Federation
# Дата: 14 Мар 2019 15:44


CorvusCorax
Исправьте, пожалуйста, название темы, если не сложно, очень глаз режет. "Метеостанциях" пишется слитно.

MAPIIIAJI
Участник
Письмо
Russian Federation
# Дата: 14 Мар 2019 18:24


suum_suum
очень глаз режет. "Метеостанциях" пишется слитно

экий вы эстет, батенька :)

kostian
Участник
Письмо
Минск. Пусть всегда будет солнце! Пусть всегда будет норма!
# Дата: 28 Мар 2019 10:45


Глава Росгидромета пожаловался на вандализм на метеостанциях

Руководитель Росгидромета Максим Яковенко заявил, что его ведомству наносит серьезный ущерб расхищение имущества метеостанций. Об этом он рассказал 27 марта в интервью «Российской газете». «В Китае за проникновение на территорию метеостанции и нанесение ей вреда введена смертная казнь, у нас воруют с метеостанций оборудование по принципу "вдруг в хозяйстве пригодится". Это, естественно, наносит огромный ущерб», – пояснил Яковенко.

Глава Росгидромета уточнил, что метеостанции в регионах позволяют проследить за изменением климата и тем, где какие сельскохозяйственные культуры лучше выращивать. Базовыми субъектами федерации для этой программы являются Татарстан, Ростовская и Новосибирская области. «Измерения проводятся начиная с почвы — наблюдаются ее влажность, изменения температурного режима. Это позволяет понять, как перезимовали озимые культуры, где их нужно пересевать, каковы метеоусловия почвенного покрова, нужно ли вносить удобрения, по увлажненности почвы видно, требуется ли дополнительный полив», – сказал Яковенко.

Он подчеркнул, что в этих регионах власти сами заинтересованы в работе метеостанций, поэтому занимаются их охраной.


http://www.pogodaiklimat.ru/news/16068/

Konstantin
Участник
Письмо
Москва, ЮЗАО
# Дата: 12 Апр 2019 15:15 - Поправил: Konstantin


Посещение метеорологической станции, расположенной в глуши Арктического побережья на 73-й параллели:
https://youtu.be/-dwUixOrdK4?t=620
15 лет работы наблюдателем, и можно выходить на пенсию.

kostian
Участник
Письмо
Минск. Пусть всегда будет солнце! Пусть всегда будет норма!
# Дата: 15 Апр 2019 12:40


Алматинский офис Казгидромета снаружи и внутри. Много фотографий. https://vlast.kz/inside/32678-vnutri-gidromet-alma ty.html

Morozov_S
Участник
Письмо
Нижний Новгород, За нашу Советскую Родину!
# Дата: 15 Апр 2019 13:30


kostian

Спасибо, весьма интересно посмотреть, как работают наши казахстанские коллеги.

CorvusCorax
Автор сайта
Письмо
Байконур
# Дата: 16 Апр 2019 08:44


Алматинский офис Казгидромета снаружи и внутри. Много фотографий.

https://vlast.kz/inside/32678-vnutri-gidromet-alma ty.html

kostian

Спасибо! Продублирую ссылку в нашу ветку.

Там и прокомментирую.

ivan2012
Участник
Письмо
Ростов-на-Дону
# Дата: 19 Май 2019 15:31


Что с данными по Ростову? 17 числа последнее обновление


PavelSky
Участник
Письмо
Мск
# Дата: 19 Май 2019 15:35 - Поправил: PavelSky


ivan2012, это надо было в тему с клим.монитором, видимо на сайте сбой какой-то, в ГМЦ данные идут https://meteoinfo.ru/pogoda?p=2513

kostian
Участник
Письмо
Минск. Пусть всегда будет солнце! Пусть всегда будет норма!
# Дата: 19 Май 2019 22:03


PavelSky
это надо было в тему с клим.монитором, видимо на сайте сбой какой-то,

Никаких сбоев на сайте нет. Вся информация поступает в полном объеме.

CorvusCorax
Автор сайта
Письмо
Байконур
# Дата: 7 Июн 2019 07:59


Данные с сети метеобуёв в Антлантическом и Тихом океанах

https://www.ndbc.noaa.gov/

kostian
Участник
Письмо
Минск. Пусть всегда будет солнце! Пусть всегда будет норма!
# Дата: 21 Авг 2019 12:21


Что случилось с метеостанцией Саратова? Ее закрыли / убрали из международного обмена? http://www.pogodaiklimat.ru/weather.php?id=34171

LESS
Участник
Письмо
Приокский лесс на юге МО
# Дата: 21 Авг 2019 12:34


kostian

Да.

http://meteoclub.ru/index.php?action=vthread&forum =2&topic=7209&page=9#19

CorvusCorax
Автор сайта
Письмо
Байконур
# Дата: 21 Авг 2019 14:01


Что случилось с метеостанцией Саратова? Ее закрыли / убрали из международного обмена?
kostian


http://meteoclub.ru/index.php?action=vthread&forum =17&topic=4148&page=100#29

CorvusCorax
Автор сайта
Письмо
Байконур
# Дата: 9 Сен 2019 11:47


С арктического острова Ушакова пропала старая полярная станция. Ее исчезновение обнаружила комплексная экспедиция «Архипелаги Арктики-2019: Северная Земля». «Весь комплекс строений откололся вместе с айсбергом, оставив на краю ледника только груду ржавых бочек. Вместе со станцией исчезла и небольшая колония морских птиц — моевок и белых чаек, которые обосновались на брошенных строениях после закрытия «полярки», — рассказала руководитель экспедиции Мария Гаврило.

Остров Ушакова представляет собой ледяную «шапку» с 15-метровыми обрывами по краям, а с высоты птичьего полета выглядит как белый блин площадью 328 кв. км, над которым постоянно висит туман. Он был открыт в 1935 году Первой высокоширотной экспедицией Главсевморпути под руководством полярного исследователя Георгия Ушакова на ледоколе «Садко» — и стал последней по времени открытой территорией на российской карте. Вокруг простирается одна из самых трудных и опасных для навигации частей Карского моря, забитая льдами.

Полярная станция на острове была создана в 1954 году и проработала до конца 1980-х — то есть фактически до распада Советского Союза. В 2001 году на острове побывала экспедиция, сообщившая, что от метеорологического комплекса остались только два вмерзших в лед домика. Данные о работе полярной станции на острове Ушакова крайне скудны, поскольку там побывало очень мало людей. О ней существует всего две публикации — один абзац в книге легендарного путешественника Владимира Санина и часть статьи метеоролога Свинаренко о наблюдениях за белыми медведями, опубликованной в журнале «Природа» за 1972 год.

«К подножию купола прилепилась крохотная полярная станция, ее коллектив – начальник, механик, радист, метеоролог; летом на денек подходит корабль со снабжением, в остальные времена года то ли случайно залетит, то ли проскочит мимо одинокий вертолет; из развлечений – книги, радио, собаки да медведи (развлечение сомнительное, отлично можно было бы без него обойтись)», — писал о станции Владимир Санин. В статье Свинаренко говорилось, что с 1955 по 1962 год полярную станцию посетили 104 белых медведя, а основная часть визитов приходилась на май, июнь, август и сентябрь, и для отпугивания хищников применяли собак.

В журнале наблюдений самой метеостанции за 1959 год есть упоминание об обнаружении гнезда белой чайки, свитом среди станционных построек. Эту птицу, занесенную в Красные книги России, Норвегии, Гренландии, Канады и мира, искали многие экспедиции в советское время. «После того как в конце прошлого века остров Ушакова покинули люди, остатки базы полностью перешли под контроль чаек, и экспедиция 2008 года подтвердила наличие здесь гнезд белых чаек – они появились в развалинах станции», — пишет National Georaphic.


ТАСС

CorvusCorax
Автор сайта
Письмо
Байконур
# Дата: 9 Сен 2019 11:57


Странная метеостанция Эль-Рашидия в Марокко

http://www.pogodaiklimat.ru/weather.php?id=60210

Каждый день порывы ветра как минимум 14 м/с, нередко 22-24 м/с, а в отдельные дни 32-36 м/с! Например, 6 сентября.

Предполагаю, что скорость ветра они передают в узлах, а не в м/с. То есть числа из сводок надо делить на 2.

В ближайшем аэропорту 6 сентября наблюдались порывы 30 узлов, то есть 15 м/с. Это гораздо более реалистично.

GMFK 060000Z 06005KT 030V090 9999 VCTS SCT026 FEW036CB 23/11 Q1020 NOSIG
GMFK 060100Z 05004KT 020V080 9999 SCT026 FEW036CB 21/12 Q1020 NOSIG
GMFK 060200Z 13004KT 100V160 9999 SCT026 FEW036CB 20/13 Q1019 NOSIG
GMFK 060300Z VRB02KT 9999 SCT026 FEW036CB 21/11 Q1019 NOSIG
GMFK 060400Z 36003KT 320V070 9999 VCTS SCT026 FEW036CB 21/11 Q1019 NOSIG
GMFK 060500Z 36007KT 9999 VCTS SCT026 FEW036CB 21/10 Q1019 NOSIG
GMFK 060700Z 36006KT 9999 SCT026 FEW036CB 22/10 Q1020 NOSIG
GMFK 060800Z 00000KT 9999 FEW026 FEW030TCU 24/10 Q1020 NOSIG
GMFK 060900Z 16003KT 110V190 9999 FEW026 FEW030TCU 26/10 Q1021 NOSIG
GMFK 061000Z 11009KT 9999 SCT026 27/09 Q1021 NOSIG
GMFK 061100Z 11008KT 060V160 9999 SCT026 FEW030TCU 28/09 Q1020 NOSIG
GMFK 061200Z 14006KT 090V180 9999 FEW030 29/08 Q1020 NOSIG
GMFK 061300Z VRB04KT 9999 FEW030 30/07 Q1019 NOSIG
GMFK 061400Z 17006KT 130V210 9999 FEW030 30/07 Q1018 NOSIG
GMFK 061500Z 17005KT 100V230 9999 SCT030 31/07 Q1018 NOSIG
GMFK 061600Z 16007KT 100V260 9999 SCT030 FEW033TCU 30/07 Q1017 NOSIG
GMFK 061700Z 12008KT 080V170 9999 SCT030 FEW033CB 31/07 Q1017 TEMPO TS SCT030 FEW033CB
GMFK 061753Z 17006KT 9999 TS SCT030 FEW033CB 30/08 Q1017
GMFK 061800Z 18006KT 9999 TS SCT030 FEW033CB 30/08 Q1017 NOSIG
GMFK 061841Z 30017G30KT 230V330 9999 TS SCT030 FEW033CB 26/10 Q1016 NOSIG
GMFK 061900Z 32021KT 9999 TS BKN030 FEW036CB SCT100 26/10 Q1017 NOSIG
GMFK 062000Z 36026KT 9999 TS BKN030 FEW036CB SCT100 24/10 Q1017 NOSIG
GMFK 062100Z 33027KT 9999 -TSRA BKN030 FEW036CB SCT100 22/14 Q1018 NOSIG
GMFK 062115Z VRB10KT 1500 TSRA BKN030 FEW036CB SCT100 19/15 Q1021 NOSIG
GMFK 062200Z 23012KT 190V270 1500 0800E R31/0900VP2000D TSRA BKN030 FEW036CB SCT100 17/16 Q1023 NOSIG
GMFK 062216Z 31019KT 5000 -TSRA BKN030 FEW036CB SCT100 18/17 Q1021 NOSIG
GMFK 062239Z 34020KT 9999 BKN030 FEW036CB SCT100 18/16 Q1020 NOSIG
GMFK 062300Z 36019KT 9999 SCT030 FEW036CB SCT100 19/15 Q1020 NOSIG


kostian
Участник
Письмо
Минск. Пусть всегда будет солнце! Пусть всегда будет норма!
# Дата: 9 Сен 2019 12:59


CorvusCorax

Да, я уже догадался, что в Марокко перешли с м/с на узлы. Исправил в базе настройки для метеостанций Марокко.

kostian
Участник
Письмо
Минск. Пусть всегда будет солнце! Пусть всегда будет норма!
# Дата: 10 Сен 2019 17:18


Почему Саратов исчез с погодной карты России

Саратов исчез из перечня городов на сайте Гидрометцентра России, где публикуются официальные прогнозы погоды. Отсутствие города в списке населенных пунктов для получения данных о погоде заметили журналисты ИА «Свободные новости». Ситуацию агентству прокоментировали в Саратовском центре гидрометеорологии и мониторинга окружающей среды. Начальник отдела прогнозирования ЦГМС Светлана Цветайло рассказала, что данные на сайт Гидрометцентра, по всей видимости, передавались со станции в аэропорту «Саратов Центральный». Поскольку он теперь не принимает воздушные суда, метеостанция также прекратила функционирование.

В новом аэропорту «Гагарин», по словам собеседницы, не предусмотрено наличие своей метеостанции. «Оборудование собирает тот минимум данных, который необходим для работы взлетно-посадочной полосы, а наблюдений, которые предполагаются на метеостанции, на новом аэродроме не ведут, данных не собирают», - уточнила Цветайло. Она также предположила, что позже на сайте Гидрометцентра появятся сведения с пункта наблюдений «Саратов Юго-Восток», расположенного в Ленинском районе, около НИИ Юго-востока. Сейчас именно эта станция является базовой для Саратова, она осталась единственной из трех пунктов наблюдения за погодными явлениями.

«Такая вот оптимизация и механизация», - резюмировала сотрудница ЦГМС.


http://www.pogodaiklimat.ru/news/16733/

LESS
Участник
Письмо
Приокский лесс на юге МО
# Дата: 11 Сен 2019 10:17


Такая вот оптимизация и механизация

П...ц.

CorvusCorax
Автор сайта
Письмо
Байконур
# Дата: 11 Сен 2019 22:19 - Поправил: CorvusCorax


kostian

Спасибо! Я об этой проблеме уже несколько раз писал в поволжской ветке.

В новом аэропорту «Гагарин», по словам собеседницы, не предусмотрено наличие своей метеостанции. «Оборудование собирает тот минимум данных, который необходим для работы взлетно-посадочной полосы, а наблюдений, которые предполагаются на метеостанции, на новом аэродроме не ведут, данных не собирают», - уточнила Цветайло.

Некорректное высказывание. На новом месте метеостанция, безусловно есть (работает с 20.08.2019 г.), но она теперь ведёт наблюдения только по программе АМСГ, а наблюдения по программе М-2 (включающие отправку сводок СИНОП) не предусмотрены.

kostian
Участник
Письмо
Минск. Пусть всегда будет солнце! Пусть всегда будет норма!
# Дата: 11 Сен 2019 22:50 - Поправил: kostian


CorvusCorax

Интересный факт. Аэропорты Перу в МЕТАРах передают максимумы, минимумы температуры и количество осадков за последний час. И еще некий BIRD HAZARD у них там пожизненно. :)

201909092200 METAR SPZO 092200Z 29013KT 9999 SCT050 17/M00 Q1030 NOSIG RMK TX21.1 SCT230 BIRD HAZARD RWY 28 PP000=
201909111200 METAR SPZO 111200Z VRB01KT 9999 FEW050 OVC080 07/01 Q1034 REDZ NOSIG RMK TN3.4 BIRD HAZARD RWY 28 PPTRZ=
https://www.ogimet.com/display_metars2.php?lang=en &lugar=SPZO&tipo=ALL&ord=DIR&nil=NO&fmt=txt&ano=20 19&mes=09&day=09&hora=19&anof=2019&mesf=09&dayf=11 &horaf=19&minf=59&send=send

CorvusCorax
Автор сайта
Письмо
Байконур
# Дата: 12 Сен 2019 10:02


kostian

Спасибо!
Видимо, у них была авария или катастрофа, связанная с птицами, вот теперь метеорологи так прикрывают себе пятую точку, чтобы претензий не было.

В ряде стран в МЕТАРах есть доп. информация. В США Т и Тд с десятыми долями, в Канаде формы и кол-во облаков по ярусам, и т.д.

<< 1 ... 18 . 19 . 20 .
Ваш ответ

          Отменить *Что это?

 » Логин  » Пароль